createdAt,value
2023-01-27T00:01:51.030Z,9.17
2023-01-27T00:04:18.025Z,8.53
2023-01-27T00:06:45.054Z,9.93
2023-01-27T00:09:11.943Z,9.80
2023-01-27T00:12:01.914Z,8.57
2023-01-27T00:14:31.515Z,9.80
2023-01-27T00:16:58.371Z,9.20
2023-01-27T00:19:27.470Z,9.00
2023-01-27T00:22:12.503Z,10.07
2023-01-27T00:24:42.423Z,8.53
2023-01-27T00:27:10.214Z,9.27
2023-01-27T00:29:40.375Z,8.43
2023-01-27T00:32:25.729Z,8.43
2023-01-27T00:34:54.802Z,8.17
2023-01-27T00:37:26.084Z,9.47
2023-01-27T00:39:55.642Z,8.00
2023-01-27T00:42:24.760Z,8.63
2023-01-27T00:45:10.611Z,9.03
2023-01-27T00:47:37.630Z,9.43
2023-01-27T00:50:05.406Z,8.97
2023-01-27T00:52:34.572Z,8.47
2023-01-27T00:55:06.858Z,7.83
2023-01-27T00:57:37.837Z,8.03
2023-01-27T01:00:10.371Z,8.37
2023-01-27T01:02:37.475Z,7.40
2023-01-27T01:05:04.804Z,8.13
2023-01-27T01:07:34.211Z,8.27
2023-01-27T01:10:01.221Z,8.37
2023-01-27T01:12:30.385Z,8.23
2023-01-27T01:15:01.947Z,7.43
2023-01-27T01:17:32.942Z,7.33
2023-01-27T01:20:02.139Z,6.73
2023-01-27T01:22:28.992Z,6.63
2023-01-27T01:24:55.818Z,6.97
2023-01-27T01:27:25.004Z,5.97
2023-01-27T01:29:54.474Z,6.53
2023-01-27T01:32:23.720Z,5.37
2023-01-27T01:34:54.065Z,6.27
2023-01-27T01:37:23.998Z,5.87
2023-01-27T01:39:50.971Z,4.93
2023-01-27T01:42:24.640Z,4.83
2023-01-27T01:45:36.375Z,5.13
2023-01-27T01:48:20.481Z,4.73
2023-01-27T01:50:58.786Z,5.73
2023-01-27T01:53:36.783Z,4.83
2023-01-27T01:56:13.573Z,5.73
2023-01-27T01:58:45.087Z,5.07
2023-01-27T02:01:16.452Z,5.60
2023-01-27T02:03:50.001Z,5.60
2023-01-27T02:06:22.224Z,5.43
2023-01-27T02:08:51.901Z,4.57
2023-01-27T02:11:21.913Z,5.83
2023-01-27T02:13:50.988Z,4.90
2023-01-27T02:16:19.240Z,5.30
2023-01-27T02:18:51.380Z,5.77
2023-01-27T02:21:18.659Z,5.03
2023-01-27T02:24:12.314Z,5.70
2023-01-27T02:26:45.857Z,5.73
2023-01-27T02:29:15.811Z,5.97
2023-01-27T02:31:43.219Z,5.30
2023-01-27T02:34:29.547Z,5.80
2023-01-27T02:37:04.766Z,4.97
2023-01-27T02:39:44.138Z,5.70
2023-01-27T02:42:17.535Z,5.43
2023-01-27T02:44:46.564Z,5.90
2023-01-27T02:47:22.581Z,6.03
2023-01-27T02:49:49.856Z,6.20
2023-01-27T02:52:19.747Z,6.43
2023-01-27T02:54:46.698Z,6.00
2023-01-27T02:57:13.785Z,5.17
2023-01-27T02:59:52.660Z,6.03
2023-01-27T03:02:22.822Z,6.30
2023-01-27T03:04:52.158Z,5.97
2023-01-27T03:07:21.206Z,5.40
2023-01-27T03:09:48.252Z,6.50
2023-01-27T03:12:22.846Z,6.20
2023-01-27T03:15:13.119Z,6.13
2023-01-27T03:18:03.447Z,7.07
2023-01-27T03:20:35.482Z,5.83
2023-01-27T03:23:03.356Z,6.50
2023-01-27T03:25:30.949Z,6.27
2023-01-27T03:28:02.341Z,6.80
2023-01-27T03:30:43.089Z,6.53
2023-01-27T03:33:24.507Z,5.93
2023-01-27T03:36:20.016Z,5.87
2023-01-27T03:39:10.733Z,6.10
2023-01-27T03:41:58.495Z,6.37
2023-01-27T03:44:47.846Z,6.30
2023-01-27T03:47:17.217Z,6.40
2023-01-27T03:49:50.839Z,6.43
2023-01-27T03:52:17.859Z,7.23
2023-01-27T03:54:44.917Z,5.77
2023-01-27T03:57:17.490Z,6.47
2023-01-27T03:59:44.517Z,5.53
2023-01-27T04:02:31.887Z,7.50
2023-01-27T04:05:17.453Z,6.03
2023-01-27T04:07:44.390Z,5.90
2023-01-27T04:10:11.448Z,5.63
2023-01-27T04:12:42.905Z,5.70
2023-01-27T04:15:14.465Z,5.73
2023-01-27T04:17:43.843Z,6.07
2023-01-27T04:20:19.744Z,6.00
2023-01-27T04:22:49.064Z,5.80
2023-01-27T04:25:18.728Z,5.13
2023-01-27T04:27:46.061Z,6.23
2023-01-27T04:30:17.916Z,5.77
2023-01-27T04:32:44.830Z,5.83
2023-01-27T04:35:17.021Z,5.63
2023-01-27T04:37:43.942Z,6.97
2023-01-27T04:40:15.881Z,6.00
2023-01-27T04:42:45.940Z,6.17
2023-01-27T04:45:17.178Z,5.63
2023-01-27T04:47:46.317Z,5.50
2023-01-27T04:50:13.410Z,5.13
2023-01-27T04:52:45.323Z,5.53
2023-01-27T04:55:12.548Z,5.87
2023-01-27T04:57:44.555Z,5.40
2023-01-27T05:00:14.200Z,5.30
2023-01-27T05:02:46.776Z,5.27
2023-01-27T05:05:18.631Z,5.53
2023-01-27T05:07:45.517Z,4.87
2023-01-27T05:10:12.604Z,5.33
2023-01-27T05:12:41.504Z,5.20
2023-01-27T05:15:08.846Z,5.20
2023-01-27T05:17:35.753Z,4.70
2023-01-27T05:20:04.999Z,4.90
2023-01-27T05:22:36.430Z,5.70
2023-01-27T05:25:03.451Z,5.33
2023-01-27T05:27:32.501Z,4.93
2023-01-27T05:29:59.370Z,4.90
2023-01-27T05:32:26.576Z,5.07
2023-01-27T05:34:56.061Z,5.43
2023-01-27T05:37:25.138Z,4.87
2023-01-27T05:39:51.961Z,5.30
2023-01-27T05:42:21.033Z,5.00
2023-01-27T05:44:49.670Z,5.10
2023-01-27T05:47:19.508Z,5.10
2023-01-27T05:49:46.376Z,5.23
2023-01-27T05:52:13.483Z,5.13
2023-01-27T05:54:40.312Z,5.47
2023-01-27T05:57:14.455Z,5.33
2023-01-27T05:59:43.942Z,4.73
2023-01-27T06:02:11.559Z,5.03
2023-01-27T06:04:38.614Z,4.50
2023-01-27T06:07:05.471Z,4.93
2023-01-27T06:09:34.916Z,4.87
2023-01-27T06:12:04.248Z,4.87
2023-01-27T06:14:33.592Z,5.40
2023-01-27T06:17:04.969Z,5.10
2023-01-27T06:19:34.461Z,5.63
2023-01-27T06:22:03.443Z,4.50
2023-01-27T06:24:37.039Z,5.53
2023-01-27T06:27:06.189Z,4.93
2023-01-27T06:29:35.468Z,5.27
2023-01-27T06:32:04.773Z,5.57
2023-01-27T06:34:41.146Z,5.17
2023-01-27T06:37:08.061Z,5.80
2023-01-27T06:39:39.584Z,5.97
2023-01-27T06:42:11.560Z,5.90
2023-01-27T06:44:40.758Z,5.53
2023-01-27T06:47:07.606Z,5.60
2023-01-27T06:49:34.631Z,6.60
2023-01-27T06:52:08.717Z,5.63
2023-01-27T06:54:38.194Z,7.13
2023-01-27T06:57:16.241Z,6.60
2023-01-27T06:59:45.737Z,6.67
2023-01-27T07:02:17.980Z,7.00
2023-01-27T07:04:49.331Z,6.80
2023-01-27T07:07:20.913Z,6.37
2023-01-27T07:09:52.649Z,6.63
2023-01-27T07:12:19.885Z,6.27
2023-01-27T07:14:46.659Z,6.57
2023-01-27T07:17:19.122Z,6.20
2023-01-27T07:19:48.446Z,6.40
2023-01-27T07:22:17.655Z,5.93
2023-01-27T07:24:51.378Z,6.40
2023-01-27T07:27:18.242Z,6.50
2023-01-27T07:29:50.653Z,6.80
2023-01-27T07:32:17.906Z,5.67
2023-01-27T07:34:51.579Z,5.93
2023-01-27T07:37:25.739Z,6.00
2023-01-27T07:39:52.719Z,6.60
2023-01-27T07:42:24.398Z,6.07
2023-01-27T07:44:51.317Z,6.13
2023-01-27T07:47:18.083Z,5.47
2023-01-27T07:49:49.709Z,6.17
2023-01-27T07:52:16.649Z,5.20
2023-01-27T07:54:43.977Z,5.23
2023-01-27T07:57:13.169Z,6.10
2023-01-27T07:59:42.369Z,5.60
2023-01-27T08:02:12.569Z,5.87
2023-01-27T08:04:53.001Z,5.30
2023-01-27T08:07:21.376Z,5.27
2023-01-27T08:09:50.543Z,5.43
2023-01-27T08:12:17.356Z,5.30
2023-01-27T08:14:44.140Z,5.53
2023-01-27T08:17:11.011Z,5.67
2023-01-27T08:19:40.067Z,5.43
2023-01-27T08:22:11.614Z,5.87
2023-01-27T08:24:40.546Z,5.83
2023-01-27T08:27:09.491Z,5.07
2023-01-27T08:29:38.509Z,5.37
2023-01-27T08:32:10.769Z,5.30
2023-01-27T08:34:42.557Z,5.60
2023-01-27T08:37:12.017Z,5.60
2023-01-27T08:39:40.930Z,6.13
2023-01-27T08:42:08.144Z,5.30
2023-01-27T08:44:35.140Z,5.13
2023-01-27T08:47:02.031Z,5.30
2023-01-27T08:49:29.267Z,4.97
2023-01-27T08:51:58.828Z,5.30
2023-01-27T08:54:30.027Z,4.97
2023-01-27T08:57:01.410Z,5.97
2023-01-27T08:59:32.773Z,4.57
2023-01-27T09:02:02.288Z,5.10
2023-01-27T09:04:31.318Z,5.27
2023-01-27T09:07:00.273Z,4.93
2023-01-27T09:09:29.564Z,5.17
2023-01-27T09:11:56.408Z,5.13
2023-01-27T09:14:25.617Z,5.37
2023-01-27T09:16:54.673Z,5.87
2023-01-27T09:19:23.738Z,5.13
2023-01-27T09:21:55.472Z,4.50
2023-01-27T09:24:23.142Z,5.27
2023-01-27T09:26:52.263Z,5.30
2023-01-27T09:29:21.444Z,5.53
2023-01-27T09:31:53.316Z,5.30
2023-01-27T09:34:20.387Z,5.07
2023-01-27T09:36:55.966Z,5.20
2023-01-27T09:39:24.650Z,5.47
2023-01-27T09:41:59.762Z,4.70
2023-01-27T09:45:00.088Z,5.10
2023-01-27T09:47:51.223Z,5.00
2023-01-27T09:50:56.852Z,5.67
2023-01-27T09:54:07.119Z,4.67
2023-01-27T09:57:16.220Z,5.20
2023-01-27T10:00:12.844Z,5.00
2023-01-27T10:03:25.722Z,4.47
2023-01-27T10:06:29.776Z,5.03
2023-01-27T10:09:40.585Z,5.20
2023-01-27T10:12:37.232Z,5.07
2023-01-27T10:15:39.415Z,4.50
2023-01-27T10:18:47.604Z,4.83
2023-01-27T10:21:45.696Z,4.40
2023-01-27T10:24:36.443Z,4.60
